Time;durP1;ratioP1;P1;durP2;ratioP2;P2;SDS_P1;SDS_P2;PMS_P1;PMS_P2;Temp;Humidity;BMP_temperature;BMP_pressure;BME280_temperature;BME280_humidity;BME280_pressure;Samples;Min_cycle;Max_cycle;Signal;HPM_P1;HPM_P2
2022/06/02 00:00:45;;;;;;;5.33;1.90;;;15.10;34.20;;;;;;5092678;28;20590;-73
2022/06/02 00:03:24;;;;;;;2.23;2.03;;;15.10;34.20;;;;;;5093345;28;20413;-75
2022/06/02 00:06:04;;;;;;;1.93;1.80;;;15.10;34.20;;;;;;5092575;28;20963;-72
2022/06/02 00:08:41;;;;;;;1.77;1.67;;;15.10;34.20;;;;;;5095226;28;20946;-73
2022/06/02 00:11:21;;;;;;;4.50;2.30;;;15.00;34.10;;;;;;5097206;28;20459;-74
2022/06/02 00:14:00;;;;;;;2.30;1.90;;;15.00;34.20;;;;;;5097050;28;20929;-73
2022/06/02 00:16:33;;;;;;;2.23;1.93;;;15.00;34.10;;;;;;5097461;28;20426;-73
2022/06/02 00:19:06;;;;;;;4.43;2.37;;;15.00;34.10;;;;;;5098162;28;21057;-73
2022/06/02 00:21:42;;;;;;;3.13;2.10;;;14.90;34.10;;;;;;5103469;28;20434;-75
2022/06/02 00:24:17;;;;;;;3.53;1.90;;;14.90;34.00;;;;;;5117606;28;20463;-73
2022/06/02 00:26:57;;;;;;;2.40;2.07;;;14.90;34.00;;;;;;5114525;28;20438;-73
2022/06/02 00:29:31;;;;;;;2.43;2.10;;;14.80;33.90;;;;;;5117805;28;20491;-73
2022/06/02 00:32:06;;;;;;;2.20;2.00;;;14.80;33.90;;;;;;5096909;28;20460;-72
2022/06/02 00:34:50;;;;;;;3.50;2.10;;;14.70;34.00;;;;;;5095863;28;20437;-72
2022/06/02 00:37:22;;;;;;;5.30;2.27;;;14.80;34.30;;;;;;5095809;28;20425;-72
2022/06/02 00:39:50;;;;;;;2.77;2.10;;;14.80;34.40;;;;;;5095418;28;20572;-72
2022/06/02 00:42:37;;;;;;;2.13;1.80;;;14.80;34.70;;;;;;5095997;28;20438;-72
2022/06/02 00:45:06;;;;;;;1.97;1.83;;;14.90;34.90;;;;;;5096014;28;20523;-73
2022/06/02 00:47:42;;;;;;;2.00;1.90;;;14.90;34.90;;;;;;5097246;28;20870;-73
2022/06/02 00:50:12;;;;;;;3.77;1.90;;;14.90;35.10;;;;;;5110604;28;20541;-74
2022/06/02 00:52:51;;;;;;;2.40;2.20;;;14.80;35.40;;;;;;5114973;28;20447;-74
2022/06/02 00:58:26;;;;;;;1.83;1.73;;;14.80;35.90;;;;;;5095429;28;20401;-73
2022/06/02 01:01:01;;;;;;;4.70;1.73;;;14.80;35.50;;;;;;5094932;28;21055;-73
2022/06/02 01:03:42;;;;;;;3.53;2.10;;;14.70;35.40;;;;;;5095093;28;20433;-73
2022/06/02 01:06:36;;;;;;;2.00;1.90;;;14.80;35.60;;;;;;5095181;28;20542;-72
2022/06/02 01:09:20;;;;;;;2.50;2.30;;;14.70;35.60;;;;;;5091532;28;20524;-72
2022/06/02 01:11:57;;;;;;;3.10;2.20;;;14.70;35.80;;;;;;5094791;28;20978;-73
2022/06/02 01:14:39;;;;;;;2.45;2.17;;;14.60;35.80;;;;;;5094548;28;21107;-72
2022/06/02 01:17:16;;;;;;;2.93;2.40;;;14.70;36.20;;;;;;5094825;28;20205;-72
2022/06/02 01:20:03;;;;;;;2.00;1.90;;;14.60;36.50;;;;;;5093706;28;20468;-74
2022/06/02 01:23:00;;;;;;;2.05;1.95;;;14.50;36.50;;;;;;5094903;28;20471;-72
2022/06/02 01:25:55;;;;;;;5.38;2.40;;;14.50;36.90;;;;;;5094309;28;20244;-73
2022/06/02 01:28:47;;;;;;;4.50;2.10;;;14.50;37.30;;;;;;5087797;28;20217;-72
2022/06/02 01:31:27;;;;;;;2.13;2.00;;;14.40;37.60;;;;;;5094310;28;20312;-75
2022/06/02 01:34:01;;;;;;;3.78;2.13;;;14.30;37.80;;;;;;5093949;28;20449;-72
2022/06/02 01:36:38;;;;;;;3.05;2.28;;;14.30;38.10;;;;;;5117532;28;20212;-74
2022/06/02 01:39:22;;;;;;;3.30;2.25;;;14.20;38.30;;;;;;5116191;28;20223;-73
2022/06/02 01:41:58;;;;;;;2.42;2.20;;;14.20;38.70;;;;;;5113939;28;20224;-74
2022/06/02 01:44:33;;;;;;;4.45;2.45;;;14.10;38.80;;;;;;5111280;28;20551;-73
2022/06/02 01:47:07;;;;;;;2.77;2.40;;;14.10;39.00;;;;;;5109178;28;20215;-73
2022/06/02 01:49:57;;;;;;;3.30;2.70;;;14.00;39.40;;;;;;5098896;28;20423;-73
2022/06/02 01:52:43;;;;;;;3.15;2.17;;;14.00;39.30;;;;;;5098646;28;20213;-72
2022/06/02 01:55:27;;;;;;;3.33;2.65;;;14.00;39.20;;;;;;5095852;28;20546;-72
2022/06/02 01:58:06;;;;;;;2.72;2.42;;;13.90;39.80;;;;;;5095331;28;20189;-72
2022/06/02 02:00:35;;;;;;;2.47;2.28;;;14.00;39.90;;;;;;5094416;28;20294;-72
2022/06/02 02:03:19;;;;;;;3.22;2.20;;;13.90;39.80;;;;;;5094612;28;20209;-72
2022/06/02 02:05:59;;;;;;;2.97;2.75;;;13.90;40.00;;;;;;5094279;28;20189;-71
2022/06/02 02:08:42;;;;;;;2.80;2.60;;;13.80;40.20;;;;;;5093758;28;20280;-72
2022/06/02 02:11:23;;;;;;;3.58;2.50;;;13.90;40.20;;;;;;5094910;28;20324;-74
2022/06/02 02:14:01;;;;;;;2.28;2.15;;;13.80;41.20;;;;;;5094986;28;20236;-76
2022/06/02 02:16:39;;;;;;;2.50;2.30;;;13.80;40.30;;;;;;5094943;28;20196;-72
2022/06/02 02:19:21;;;;;;;4.07;2.88;;;13.80;40.40;;;;;;5094622;28;20248;-73
2022/06/02 02:21:57;;;;;;;2.60;2.35;;;13.80;40.40;;;;;;5095478;28;20308;-73
2022/06/02 02:24:34;;;;;;;3.47;2.47;;;13.80;40.40;;;;;;5095470;28;20211;-72
2022/06/02 02:27:07;;;;;;;2.70;2.50;;;13.70;40.50;;;;;;5094279;28;20287;-72
2022/06/02 02:29:43;;;;;;;3.25;2.63;;;13.70;40.70;;;;;;5094674;28;20201;-72
2022/06/02 02:32:23;;;;;;;2.40;2.20;;;13.70;40.60;;;;;;5094417;28;20224;-74
2022/06/02 02:35:00;;;;;;;5.38;2.88;;;13.60;40.90;;;;;;5094977;28;20220;-74
2022/06/02 02:37:35;;;;;;;3.90;2.80;;;13.60;41.50;;;;;;5096045;28;20185;-72
2022/06/02 02:40:09;;;;;;;2.80;2.58;;;13.50;41.90;;;;;;5094182;28;20677;-72
2022/06/02 02:42:41;;;;;;;2.95;2.70;;;13.50;42.20;;;;;;5095937;28;20257;-73
2022/06/02 02:45:23;;;;;;;3.80;3.38;;;13.50;42.00;;;;;;5114276;28;20185;-72
2022/06/02 02:47:56;;;;;;;3.00;2.70;;;13.40;42.70;;;;;;5106053;28;20199;-72
2022/06/02 02:50:28;;;;;;;3.30;3.00;;;13.40;42.70;;;;;;5113800;28;20255;-72
2022/06/02 02:53:00;;;;;;;3.00;2.80;;;13.40;42.70;;;;;;5100043;28;20552;-72
2022/06/02 02:55:31;;;;;;;2.88;2.45;;;13.40;42.70;;;;;;5094077;28;20190;-73
2022/06/02 02:58:05;;;;;;;2.60;2.40;;;13.30;42.60;;;;;;5094061;28;20296;-73
2022/06/02 03:00:36;;;;;;;3.60;2.70;;;13.30;43.30;;;;;;5101958;28;20288;-74
2022/06/02 03:03:09;;;;;;;3.22;2.53;;;13.30;42.60;;;;;;5126100;28;20193;-71
2022/06/02 03:05:52;;;;;;;2.95;2.65;;;13.30;43.20;;;;;;5117039;28;20204;-72
2022/06/02 03:08:28;;;;;;;4.70;3.30;;;13.30;43.40;;;;;;5113411;28;20192;-75
2022/06/02 03:11:02;;;;;;;3.55;2.40;;;13.20;43.90;;;;;;5113686;28;20254;-73
2022/06/02 03:13:36;;;;;;;3.38;3.08;;;13.10;44.30;;;;;;5113649;28;20627;-75
2022/06/02 03:16:08;;;;;;;2.95;2.70;;;13.00;44.60;;;;;;5113283;28;20667;-75
2022/06/02 03:18:48;;;;;;;3.65;2.80;;;13.00;45.30;;;;;;5113636;28;20247;-73
2022/06/02 03:21:27;;;;;;;3.50;3.20;;;12.90;45.60;;;;;;5113236;28;20227;-73
2022/06/02 03:24:29;;;;;;;4.38;2.88;;;12.90;46.00;;;;;;5113501;28;20199;-72
2022/06/02 03:27:11;;;;;;;2.78;2.55;;;12.90;46.30;;;;;;5114059;28;20188;-73
2022/06/02 03:29:52;;;;;;;4.03;3.03;;;12.90;46.60;;;;;;5115445;28;20200;-72
2022/06/02 03:32:28;;;;;;;2.67;2.47;;;12.80;47.00;;;;;;5100653;28;20184;-75
2022/06/02 03:35:04;;;;;;;3.30;3.03;;;12.80;47.20;;;;;;5110817;28;20253;-73
2022/06/02 03:37:48;;;;;;;3.75;2.90;;;12.80;47.50;;;;;;5098755;28;20277;-73
2022/06/02 03:40:26;;;;;;;2.72;2.53;;;12.80;47.80;;;;;;5093762;28;20792;-74
2022/06/02 03:43:04;;;;;;;3.35;3.10;;;12.80;48.00;;;;;;5094386;28;20375;-74
2022/06/02 03:45:42;;;;;;;5.18;3.25;;;12.80;47.90;;;;;;5097034;28;20641;-73
2022/06/02 03:48:24;;;;;;;3.42;3.10;;;12.80;48.20;;;;;;5105633;28;20185;-72
2022/06/02 03:51:16;;;;;;;3.65;2.92;;;12.80;48.80;;;;;;5096861;28;20685;-72
2022/06/02 03:54:19;;;;;;;3.28;2.90;;;12.80;48.80;;;;;;5096911;28;20273;-73
2022/06/02 03:57:00;;;;;;;5.35;3.00;;;12.90;48.70;;;;;;5096794;28;20189;-73
2022/06/02 03:59:53;;;;;;;3.45;3.15;;;12.90;48.50;;;;;;5112227;28;20641;-72
2022/06/02 04:02:28;;;;;;;3.80;3.40;;;12.80;48.80;;;;;;5116300;28;20575;-74
2022/06/02 04:05:02;;;;;;;3.80;3.40;;;12.80;49.40;;;;;;5116385;28;20656;-75
2022/06/02 04:07:36;;;;;;;3.50;3.20;;;12.80;49.20;;;;;;5117314;28;20188;-74
2022/06/02 04:10:19;;;;;;;3.60;3.30;;;12.80;49.40;;;;;;5117482;28;20588;-74
2022/06/02 04:16:19;;;;;;;3.90;2.90;;;12.90;48.80;;;;;;5118424;28;20180;-73
2022/06/02 04:18:58;;;;;;;3.53;3.22;;;13.00;48.80;;;;;;5099747;28;20200;-74
2022/06/02 04:21:37;;;;;;;3.67;3.38;;;13.00;48.90;;;;;;5117150;28;20300;-73
2022/06/02 04:24:22;;;;;;;3.40;3.10;;;13.00;49.10;;;;;;5116601;28;20208;-75
2022/06/02 04:27:09;;;;;;;3.88;3.00;;;13.00;49.40;;;;;;5117111;28;20194;-73
2022/06/02 04:30:01;;;;;;;4.25;3.55;;;13.10;49.30;;;;;;5116932;28;20656;-73
2022/06/02 04:32:40;;;;;;;3.50;3.10;;;13.20;48.60;;;;;;5105620;28;20664;-73
2022/06/02 04:35:18;;;;;;;3.90;3.53;;;13.30;48.10;;;;;;5116351;28;20504;-73
2022/06/02 04:37:58;;;;;;;3.35;3.05;;;13.20;48.50;;;;;;5116551;28;20212;-73
2022/06/02 04:40:37;;;;;;;4.82;3.33;;;13.30;48.50;;;;;;5116703;28;20232;-73
2022/06/02 04:43:20;;;;;;;3.83;3.42;;;13.30;48.60;;;;;;5118732;28;20188;-73
2022/06/02 04:46:00;;;;;;;3.33;3.13;;;13.30;48.90;;;;;;5135089;28;20192;-74
2022/06/02 04:48:34;;;;;;;3.90;3.50;;;13.50;48.00;;;;;;5129956;28;20430;-71
2022/06/02 04:51:10;;;;;;;6.97;3.97;;;13.80;47.40;;;;;;5117398;28;20224;-73
2022/06/02 04:53:43;;;;;;;4.95;3.65;;;13.80;47.10;;;;;;5118540;28;20196;-72
2022/06/02 04:56:17;;;;;;;6.30;3.23;;;14.10;46.50;;;;;;5117016;28;20299;-72
2022/06/02 04:58:52;;;;;;;6.50;3.60;;;14.70;44.30;;;;;;5117540;28;20454;-72
2022/06/02 05:01:38;;;;;;;7.93;3.70;;;15.30;43.20;;;;;;5119588;28;20528;-73
2022/06/02 05:04:14;;;;;;;4.93;3.00;;;15.50;41.10;;;;;;5118603;28;20492;-72
2022/06/02 05:06:52;;;;;;;4.90;2.63;;;15.00;42.60;;;;;;5135529;28;20642;-72
2022/06/02 05:09:23;;;;;;;3.90;3.40;;;15.10;42.80;;;;;;5124339;28;20417;-74
2022/06/02 05:12:08;;;;;;;3.00;2.70;;;15.60;41.10;;;;;;5137202;28;20501;-73
2022/06/02 05:14:43;;;;;;;3.03;2.83;;;15.60;40.40;;;;;;5125568;28;20773;-73
2022/06/02 05:17:26;;;;;;;6.90;3.27;;;15.20;41.70;;;;;;5115930;28;20441;-72
2022/06/02 05:20:30;;;;;;;3.30;3.00;;;15.00;42.40;;;;;;5115543;28;20536;-73
2022/06/02 05:23:16;;;;;;;3.53;3.23;;;15.30;41.70;;;;;;5115582;28;20497;-73
2022/06/02 05:26:25;;;;;;;8.40;3.37;;;15.20;41.60;;;;;;5119216;28;20453;-73
2022/06/02 05:29:21;;;;;;;6.00;3.40;;;15.40;41.10;;;;;;5106466;28;20460;-75
2022/06/02 05:32:15;;;;;;;3.47;3.17;;;16.00;39.50;;;;;;5126495;28;20458;-73
2022/06/02 05:35:06;;;;;;;7.60;2.93;;;16.70;37.60;;;;;;5117330;28;20523;-75
2022/06/02 05:37:44;;;;;;;7.07;3.07;;;17.60;35.90;;;;;;5115672;28;20507;-75
2022/06/02 05:40:20;;;;;;;3.50;2.33;;;17.60;34.80;;;;;;5115597;28;21050;-76
2022/06/02 05:42:59;;;;;;;3.40;2.13;;;18.20;33.40;;;;;;5115601;28;20556;-74
2022/06/02 05:45:43;;;;;;;2.17;2.03;;;18.30;32.90;;;;;;5115769;28;20453;-75
2022/06/02 05:48:25;;;;;;;3.80;3.00;;;17.80;33.60;;;;;;5115251;28;20798;-74
2022/06/02 05:51:00;;;;;;;2.70;2.50;;;17.80;33.50;;;;;;5114936;28;20831;-75
2022/06/02 05:53:43;;;;;;;4.20;3.00;;;17.40;34.50;;;;;;5115674;28;20508;-75
2022/06/02 05:56:20;;;;;;;4.07;2.30;;;17.60;34.90;;;;;;5114330;28;20469;-73
2022/06/02 05:59:21;;;;;;;2.73;2.50;;;18.20;33.40;;;;;;5122200;28;20452;-73
2022/06/02 06:02:16;;;;;;;2.47;2.27;;;18.30;32.90;;;;;;5114291;28;20496;-73
2022/06/02 06:05:02;;;;;;;5.10;2.70;;;19.00;31.60;;;;;;5115220;28;20461;-73
2022/06/02 06:07:48;;;;;;;3.37;3.07;;;18.70;33.00;;;;;;5115178;28;20921;-74
2022/06/02 06:10:27;;;;;;;3.37;2.50;;;18.20;34.30;;;;;;5114944;28;20466;-73
2022/06/02 06:13:07;;;;;;;2.63;2.43;;;18.20;34.00;;;;;;5115431;28;20454;-74
2022/06/02 06:15:51;;;;;;;3.50;2.60;;;17.50;35.20;;;;;;5117609;28;20518;-77
2022/06/02 06:18:30;;;;;;;3.93;3.50;;;17.80;34.60;;;;;;5116237;28;20539;-74
2022/06/02 06:21:09;;;;;;;4.40;3.00;;;17.70;36.00;;;;;;5121192;28;20538;-73
2022/06/02 06:24:14;;;;;;;5.07;2.67;;;17.40;36.40;;;;;;5115160;28;20814;-73
2022/06/02 06:26:51;;;;;;;4.33;2.27;;;18.20;35.10;;;;;;5107242;28;20454;-74
2022/06/02 06:29:33;;;;;;;3.23;2.00;;;18.50;33.40;;;;;;5114060;28;21019;-73
2022/06/02 06:32:08;;;;;;;4.20;2.30;;;19.40;31.60;;;;;;5112117;28;20481;-71
2022/06/02 06:34:48;;;;;;;2.73;2.00;;;19.40;29.80;;;;;;5114040;28;20478;-74
2022/06/02 06:37:45;;;;;;;6.00;2.40;;;18.00;32.30;;;;;;5108566;28;20451;-72
2022/06/02 06:40:35;;;;;;;3.07;2.20;;;18.40;33.20;;;;;;5109627;28;20955;-75
2022/06/02 06:43:15;;;;;;;3.87;2.10;;;18.60;32.70;;;;;;5110966;28;20495;-75
2022/06/02 06:45:48;;;;;;;2.30;2.10;;;18.50;31.60;;;;;;5113530;28;20458;-74
2022/06/02 06:48:23;;;;;;;3.37;2.40;;;18.00;33.30;;;;;;5113154;28;20557;-74
2022/06/02 06:50:56;;;;;;;4.40;2.60;;;17.90;31.90;;;;;;5111804;28;20559;-75
2022/06/02 06:53:39;;;;;;;5.00;1.97;;;18.60;29.50;;;;;;5112108;28;20989;-73
2022/06/02 06:56:15;;;;;;;1.90;1.80;;;18.30;29.10;;;;;;5104465;28;20421;-73
2022/06/02 06:59:11;;;;;;;2.30;2.10;;;17.70;29.20;;;;;;5118630;28;20457;-73
2022/06/02 07:01:46;;;;;;;4.00;1.70;;;17.10;30.30;;;;;;5109630;28;20573;-73
2022/06/02 07:04:26;;;;;;;2.60;2.30;;;16.90;31.30;;;;;;5108538;28;20524;-74
2022/06/02 07:07:02;;;;;;;2.10;1.90;;;16.70;30.90;;;;;;5113777;28;20850;-74
2022/06/02 07:09:38;;;;;;;2.70;1.90;;;16.90;30.70;;;;;;5111983;28;20423;-74
2022/06/02 07:15:02;;;;;;;1.90;1.80;;;16.90;30.80;;;;;;5115576;28;20466;-73
2022/06/02 07:17:36;;;;;;;2.13;1.90;;;17.00;29.20;;;;;;5114272;28;20468;-74
2022/06/02 07:20:08;;;;;;;2.07;1.90;;;17.00;30.10;;;;;;5118911;28;20441;-73
2022/06/02 07:22:43;;;;;;;2.33;1.83;;;17.20;30.70;;;;;;5121290;28;20450;-73
2022/06/02 07:25:20;;;;;;;2.23;2.07;;;16.90;29.80;;;;;;5122327;28;20434;-77
2022/06/02 07:27:56;;;;;;;2.23;2.00;;;16.90;29.30;;;;;;5136268;28;20502;-77
2022/06/02 07:30:40;;;;;;;3.30;2.00;;;16.90;29.10;;;;;;5128624;27;20696;-76
2022/06/02 07:33:32;;;;;;;2.97;1.80;;;17.10;29.60;;;;;;5119419;28;20424;-74
2022/06/02 07:36:34;;;;;;;1.80;1.70;;;17.20;30.20;;;;;;5128506;28;20470;-75
2022/06/02 07:39:26;;;;;;;5.13;2.10;;;17.30;30.40;;;;;;5121151;28;20443;-77
2022/06/02 07:42:07;;;;;;;4.00;2.00;;;17.30;30.40;;;;;;5123570;28;20564;-77
2022/06/02 07:44:58;;;;;;;2.27;1.97;;;17.40;29.50;;;;;;5120510;28;20417;-74
2022/06/02 07:47:46;;;;;;;1.87;1.77;;;17.40;29.20;;;;;;5122067;28;20421;-77
2022/06/02 07:50:20;;;;;;;2.03;1.80;;;17.40;28.30;;;;;;5121889;28;20446;-76
2022/06/02 07:53:06;;;;;;;2.50;2.30;;;17.60;27.20;;;;;;5133785;28;20424;-79
2022/06/02 07:55:42;;;;;;;2.83;1.77;;;17.30;28.40;;;;;;5140489;28;20833;-77
2022/06/02 07:58:24;;;;;;;2.57;2.13;;;17.80;27.30;;;;;;5139598;28;20420;-76
2022/06/02 08:00:58;;;;;;;3.50;1.83;;;17.60;27.20;;;;;;5122825;28;20513;-75
2022/06/02 08:03:52;;;;;;;3.10;1.60;;;17.80;26.60;;;;;;5119906;28;20434;-75
2022/06/02 08:06:27;;;;;;;5.67;2.40;;;18.10;26.30;;;;;;5114476;28;20524;-75
2022/06/02 08:09:14;;;;;;;2.00;1.90;;;18.10;26.00;;;;;;5117244;28;20460;-76
2022/06/02 08:11:51;;;;;;;3.40;1.80;;;17.90;27.40;;;;;;5116954;28;20819;-78
2022/06/02 08:14:28;;;;;;;2.87;1.80;;;17.90;27.40;;;;;;5117137;28;20421;-76
2022/06/02 08:17:01;;;;;;;1.77;1.67;;;18.10;27.50;;;;;;5117938;28;20443;-77
2022/06/02 08:19:45;;;;;;;2.60;1.63;;;18.40;26.30;;;;;;5117147;28;20515;-76
2022/06/02 08:22:17;;;;;;;1.60;1.53;;;18.60;25.20;;;;;;5117002;28;20494;-76
2022/06/02 08:25:05;;;;;;;2.20;1.73;;;18.50;26.20;;;;;;5116573;28;20438;-77
2022/06/02 08:27:55;;;;;;;1.83;1.47;;;18.40;26.60;;;;;;5116250;28;20635;-76
2022/06/02 08:30:30;;;;;;;3.47;1.70;;;18.40;26.90;;;;;;5117304;28;20478;-77
2022/06/02 08:33:11;;;;;;;2.20;1.90;;;18.50;26.90;;;;;;5118009;28;20820;-76
2022/06/02 08:35:44;;;;;;;2.57;1.67;;;18.70;26.80;;;;;;5118710;28;20454;-77
2022/06/02 08:38:26;;;;;;;2.67;1.97;;;18.80;26.50;;;;;;5118600;28;20442;-77
2022/06/02 08:41:31;;;;;;;10.07;2.33;;;18.70;27.20;;;;;;5118783;28;20518;-77
2022/06/02 08:44:46;;;;;;;6.03;1.60;;;18.90;27.00;;;;;;5120837;28;20938;-77
2022/06/02 08:47:43;;;;;;;3.27;2.00;;;18.70;26.70;;;;;;5120010;28;20456;-77
2022/06/02 08:50:49;;;;;;;4.23;1.93;;;18.90;26.50;;;;;;5118845;28;20425;-76
2022/06/02 08:53:58;;;;;;;2.33;1.60;;;19.20;25.60;;;;;;5084355;28;20452;-76
2022/06/02 08:56:51;;;;;;;1.40;1.30;;;18.90;25.60;;;;;;5116266;28;20464;-77
2022/06/02 08:59:49;;;;;;;2.10;1.90;;;18.70;25.40;;;;;;5116232;28;20972;-75
2022/06/02 09:02:35;;;;;;;1.63;1.53;;;18.70;25.90;;;;;;5115667;28;20525;-76
2022/06/02 09:05:35;;;;;;;2.10;1.90;;;19.00;24.50;;;;;;5111498;28;20466;-75
2022/06/02 09:08:21;;;;;;;1.70;1.60;;;19.10;24.20;;;;;;5115537;28;20445;-75
2022/06/02 09:11:08;;;;;;;2.37;1.60;;;19.20;24.30;;;;;;5115239;28;20444;-75
2022/06/02 09:14:18;;;;;;;1.50;1.40;;;19.50;23.40;;;;;;5115458;28;20450;-76
2022/06/02 09:16:56;;;;;;;2.90;1.70;;;19.50;22.40;;;;;;5117043;28;20953;-76
2022/06/02 09:19:35;;;;;;;1.40;1.30;;;19.50;23.10;;;;;;5116958;28;20436;-76
2022/06/02 09:22:30;;;;;;;2.17;1.40;;;19.70;22.70;;;;;;5117771;28;20494;-76
2022/06/02 09:25:08;;;;;;;1.73;1.50;;;19.80;20.50;;;;;;5115885;28;20446;-76
2022/06/02 09:27:55;;;;;;;1.47;1.37;;;20.00;21.40;;;;;;5116031;28;21111;-75
2022/06/02 09:30:33;;;;;;;2.27;1.37;;;19.50;22.30;;;;;;5116082;28;20502;-75
2022/06/02 09:33:39;;;;;;;3.00;1.10;;;19.60;22.80;;;;;;5116330;28;20446;-75
2022/06/02 09:36:30;;;;;;;2.43;1.40;;;20.00;22.10;;;;;;5116083;28;20518;-76
2022/06/02 09:39:15;;;;;;;1.50;1.40;;;20.20;22.40;;;;;;5113166;28;20429;-76
2022/06/02 09:42:02;;;;;;;2.50;1.20;;;20.00;22.40;;;;;;5116566;28;20551;-76
2022/06/02 09:44:39;;;;;;;1.73;1.23;;;20.10;22.40;;;;;;5116596;28;20534;-76
2022/06/02 09:47:30;;;;;;;2.60;1.40;;;20.40;21.00;;;;;;5121357;28;20464;-77
2022/06/02 09:50:34;;;;;;;1.60;1.50;;;20.70;21.20;;;;;;5136954;28;20427;-76
2022/06/02 09:53:22;;;;;;;1.00;0.90;;;20.50;21.60;;;;;;5124948;28;20454;-77
2022/06/02 09:56:06;;;;;;;1.50;1.40;;;20.80;21.20;;;;;;5139855;28;20507;-75
2022/06/02 09:58:55;;;;;;;2.30;1.23;;;20.40;21.00;;;;;;5120178;28;20490;-75
2022/06/02 10:01:33;;;;;;;2.40;1.37;;;21.00;20.40;;;;;;5126175;28;20457;-76
2022/06/02 10:04:34;;;;;;;1.40;1.30;;;21.10;19.80;;;;;;5136207;28;20530;-76
2022/06/02 10:07:33;;;;;;;1.57;1.20;;;21.10;20.50;;;;;;5137305;28;20426;-76
2022/06/02 10:10:17;;;;;;;1.17;1.17;;;21.40;20.00;;;;;;5134653;28;20414;-75
2022/06/02 10:13:07;;;;;;;1.30;1.20;;;21.00;21.00;;;;;;5135408;28;20442;-76
2022/06/02 10:16:06;;;;;;;2.77;1.27;;;21.00;21.40;;;;;;5121453;28;20463;-76
2022/06/02 10:18:46;;;;;;;1.73;1.10;;;21.00;20.90;;;;;;5118243;28;20451;-76
2022/06/02 10:21:25;;;;;;;5.90;1.23;;;21.00;20.90;;;;;;5117074;28;20494;-75
2022/06/02 10:24:25;;;;;;;1.50;1.40;;;21.10;21.40;;;;;;5116437;28;20425;-78
2022/06/02 10:27:26;;;;;;;1.00;1.00;;;21.40;20.60;;;;;;5114355;28;20455;-75
2022/06/02 10:30:30;;;;;;;1.40;1.30;;;21.50;20.50;;;;;;5117501;28;20406;-77
2022/06/02 10:33:35;;;;;;;2.00;1.13;;;21.50;20.20;;;;;;5107046;28;20457;-77
2022/06/02 10:36:23;;;;;;;1.73;1.30;;;21.50;20.90;;;;;;5111908;28;20418;-75
2022/06/02 10:39:09;;;;;;;2.40;1.70;;;21.20;21.50;;;;;;5136601;28;20449;-75
2022/06/02 10:41:57;;;;;;;1.40;1.30;;;21.20;21.50;;;;;;5130911;28;20440;-76
2022/06/02 10:44:47;;;;;;;2.27;2.07;;;21.40;21.20;;;;;;5130101;28;20806;-76
2022/06/02 10:47:53;;;;;;;1.80;1.40;;;21.70;21.60;;;;;;5130080;28;20426;-76
2022/06/02 10:50:35;;;;;;;1.40;1.30;;;21.30;21.60;;;;;;5107052;28;20479;-76
2022/06/02 10:53:33;;;;;;;1.60;1.50;;;21.60;20.60;;;;;;5127756;28;20519;-74
2022/06/02 10:56:46;;;;;;;2.83;1.57;;;21.30;21.60;;;;;;5120780;28;20696;-77
2022/06/02 10:59:42;;;;;;;3.63;1.47;;;21.50;20.60;;;;;;5043655;28;20428;-77
2022/06/02 11:02:49;;;;;;;1.90;1.40;;;21.40;22.20;;;;;;5129906;28;20530;-74
2022/06/02 11:05:55;;;;;;;2.33;1.60;;;21.60;20.10;;;;;;5099935;28;20494;-77
2022/06/02 11:08:51;;;;;;;2.70;1.30;;;21.50;20.90;;;;;;5132397;28;20450;-76
2022/06/02 11:11:44;;;;;;;1.77;1.67;;;21.60;20.40;;;;;;5131752;28;20531;-76
2022/06/02 11:14:48;;;;;;;1.70;1.60;;;21.80;21.00;;;;;;5117439;28;20981;-76
2022/06/02 11:17:51;;;;;;;1.30;1.17;;;22.20;20.00;;;;;;5110741;28;20520;-75
2022/06/02 11:21:09;;;;;;;3.50;1.37;;;22.50;20.10;;;;;;5119536;28;20475;-76
2022/06/02 11:24:01;;;;;;;1.47;1.37;;;22.70;19.70;;;;;;5068312;28;20560;-76
2022/06/02 11:26:59;;;;;;;2.27;1.47;;;22.20;20.20;;;;;;5093790;28;20445;-76
2022/06/02 11:30:02;;;;;;;1.60;1.40;;;22.30;19.70;;;;;;5104190;28;20457;-76
2022/06/02 11:32:55;;;;;;;2.80;1.70;;;22.30;19.90;;;;;;5093171;28;20417;-76
2022/06/02 11:35:59;;;;;;;3.30;1.53;;;22.70;19.40;;;;;;5110406;28;20413;-74
2022/06/02 11:39:13;;;;;;;2.90;1.60;;;23.20;19.30;;;;;;5114161;28;20451;-74
2022/06/02 11:41:53;;;;;;;1.20;1.10;;;23.20;19.20;;;;;;5114820;28;20963;-74
2022/06/02 11:44:34;;;;;;;1.27;1.20;;;22.60;20.00;;;;;;5111981;28;20473;-75
2022/06/02 11:47:28;;;;;;;5.50;1.60;;;22.60;19.90;;;;;;5114790;28;20436;-74
2022/06/02 11:50:21;;;;;;;5.90;1.40;;;22.50;19.50;;;;;;5113258;28;20868;-75
2022/06/02 11:53:10;;;;;;;2.17;1.80;;;22.40;20.00;;;;;;5119855;28;20535;-74
2022/06/02 11:55:43;;;;;;;1.50;1.40;;;22.90;19.50;;;;;;5134644;28;20972;-77
2022/06/02 11:58:39;;;;;;;1.73;1.33;;;22.60;19.60;;;;;;5126859;28;20514;-76
2022/06/02 12:01:48;;;;;;;2.43;1.50;;;22.50;19.70;;;;;;5115511;28;20456;-74
2022/06/02 12:04:44;;;;;;;2.83;1.70;;;22.50;19.70;;;;;;5092717;28;20414;-76
2022/06/02 12:07:37;;;;;;;3.83;1.50;;;23.20;19.10;;;;;;5120404;28;21034;-74
2022/06/02 12:10:31;;;;;;;1.93;1.30;;;23.50;18.80;;;;;;5051831;28;20461;-75
2022/06/02 12:13:18;;;;;;;2.30;1.23;;;23.80;18.60;;;;;;5035981;28;20446;-74
2022/06/02 12:16:18;;;;;;;1.67;1.50;;;23.50;18.50;;;;;;5052732;28;20555;-74
2022/06/02 12:19:08;;;;;;;2.30;1.50;;;23.10;19.00;;;;;;5032724;28;20509;-74
2022/06/02 12:21:52;;;;;;;2.57;1.30;;;23.00;20.00;;;;;;5034570;28;20476;-73
2022/06/02 12:24:36;;;;;;;1.50;1.20;;;23.40;18.90;;;;;;5018356;28;20457;-75
2022/06/02 12:27:23;;;;;;;5.53;1.20;;;23.50;19.00;;;;;;5033209;28;20467;-76
2022/06/02 12:30:06;;;;;;;1.80;1.47;;;23.60;19.70;;;;;;5033417;28;20528;-75
2022/06/02 12:32:54;;;;;;;2.00;1.27;;;23.20;19.30;;;;;;5032050;28;20495;-72
2022/06/02 12:35:43;;;;;;;1.90;1.47;;;23.00;19.60;;;;;;5032989;28;20555;-75
2022/06/02 12:38:31;;;;;;;2.07;1.40;;;23.00;20.00;;;;;;5033088;28;20460;-74
2022/06/02 12:41:26;;;;;;;1.63;1.30;;;22.90;19.80;;;;;;5031893;28;20537;-75
2022/06/02 12:44:35;;;;;;;2.90;1.03;;;23.30;19.10;;;;;;5031555;28;20517;-75
2022/06/02 12:47:35;;;;;;;3.40;1.73;;;23.40;19.10;;;;;;5055134;28;20545;-76
2022/06/02 12:50:43;;;;;;;1.17;1.07;;;23.40;19.40;;;;;;5095173;28;20539;-76
2022/06/02 12:53:48;;;;;;;3.13;1.50;;;23.60;19.00;;;;;;5047398;28;20485;-75
2022/06/02 12:56:57;;;;;;;1.73;1.27;;;23.50;19.00;;;;;;5088367;28;20536;-74
2022/06/02 13:00:06;;;;;;;1.50;1.20;;;23.10;19.50;;;;;;5085052;28;20474;-75
2022/06/02 13:02:57;;;;;;;1.67;1.10;;;23.40;19.50;;;;;;5081858;28;20480;-76
2022/06/02 13:06:03;;;;;;;0.90;0.90;;;23.50;19.50;;;;;;5118638;28;20457;-75
2022/06/02 13:09:00;;;;;;;2.90;1.60;;;23.60;19.00;;;;;;5119075;28;20451;-76
2022/06/02 13:11:54;;;;;;;4.90;1.50;;;23.70;19.10;;;;;;5117984;28;20465;-75
2022/06/02 13:14:41;;;;;;;1.47;1.20;;;23.30;19.80;;;;;;5072387;28;20476;-74
2022/06/02 13:17:24;;;;;;;2.93;1.20;;;23.40;19.20;;;;;;5114749;28;20446;-75
2022/06/02 13:20:26;;;;;;;3.30;1.70;;;23.80;19.20;;;;;;5115462;28;20922;-75
2022/06/02 13:23:38;;;;;;;2.10;1.30;;;23.40;19.60;;;;;;5115071;28;20571;-76
2022/06/02 13:26:30;;;;;;;3.57;1.47;;;23.10;19.60;;;;;;5114995;28;20770;-75
2022/06/02 13:29:18;;;;;;;1.87;0.90;;;23.20;20.40;;;;;;5115140;28;20415;-75
2022/06/02 13:32:12;;;;;;;4.43;1.33;;;23.40;19.80;;;;;;5116479;28;20478;-75
2022/06/02 13:35:19;;;;;;;3.03;1.70;;;23.90;19.10;;;;;;5117913;28;20826;-74
2022/06/02 13:38:13;;;;;;;1.77;1.27;;;23.90;19.00;;;;;;5118015;28;20823;-76
2022/06/02 13:41:04;;;;;;;2.20;1.20;;;23.80;19.10;;;;;;5117024;28;20478;-74
2022/06/02 13:43:49;;;;;;;3.60;1.30;;;23.90;19.40;;;;;;5116694;28;20478;-74
2022/06/02 13:46:56;;;;;;;2.23;1.50;;;23.50;19.30;;;;;;5115872;28;20551;-74
2022/06/02 13:49:58;;;;;;;2.30;1.30;;;23.90;19.10;;;;;;5095095;28;20449;-74
2022/06/02 13:53:12;;;;;;;1.60;1.30;;;23.60;19.20;;;;;;5120854;28;20421;-76
2022/06/02 13:59:29;;;;;;;3.43;1.50;;;23.40;20.20;;;;;;5097994;28;20406;-76
2022/06/02 14:02:16;;;;;;;1.27;1.10;;;23.40;20.30;;;;;;5106217;28;20492;-75
2022/06/02 14:04:54;;;;;;;2.27;2.07;;;23.70;19.70;;;;;;5115803;28;20449;-77
2022/06/02 14:07:51;;;;;;;1.77;1.43;;;23.50;19.80;;;;;;5116923;28;20454;-76
2022/06/02 14:10:37;;;;;;;4.40;1.47;;;23.60;19.70;;;;;;5117788;28;20514;-76
2022/06/02 14:13:35;;;;;;;8.93;1.63;;;23.40;20.20;;;;;;5129911;28;20442;-75
2022/06/02 14:16:10;;;;;;;1.73;1.23;;;23.70;19.80;;;;;;5120626;28;20462;-75
2022/06/02 14:19:12;;;;;;;1.60;1.37;;;23.60;19.90;;;;;;5121231;28;21024;-76
2022/06/02 14:21:50;;;;;;;2.83;1.60;;;23.70;19.60;;;;;;5120871;28;20472;-75
2022/06/02 14:24:31;;;;;;;1.67;1.57;;;23.50;19.90;;;;;;5120327;28;20456;-75
2022/06/02 14:27:13;;;;;;;4.23;1.50;;;23.40;20.30;;;;;;5124114;28;20456;-77
2022/06/02 14:29:52;;;;;;;1.50;1.30;;;23.40;20.80;;;;;;5130925;28;20464;-73
2022/06/02 14:32:35;;;;;;;1.23;1.23;;;23.60;20.50;;;;;;5135738;28;20473;-78
2022/06/02 14:35:23;;;;;;;3.17;1.17;;;23.90;19.80;;;;;;5136700;28;20450;-76